sensor_id;sensor_type;location;lat;lon;timestamp;temperature;humidity
14349;DHT22;7258;50.376;8.742;2023-04-03T00:01:32;4.20;99.90
14349;DHT22;7258;50.376;8.742;2023-04-03T00:03:37;4.10;99.90
14349;DHT22;7258;50.376;8.742;2023-04-03T00:05:40;4.10;99.90
14349;DHT22;7258;50.376;8.742;2023-04-03T00:07:44;4.20;99.90
14349;DHT22;7258;50.376;8.742;2023-04-03T00:09:47;4.20;99.90
14349;DHT22;7258;50.376;8.742;2023-04-03T00:11:50;4.20;99.90
14349;DHT22;7258;50.376;8.742;2023-04-03T00:13:52;4.20;99.90
14349;DHT22;7258;50.376;8.742;2023-04-03T00:15:56;4.20;99.90
14349;DHT22;7258;50.376;8.742;2023-04-03T00:17:59;4.20;99.90
14349;DHT22;7258;50.376;8.742;2023-04-03T00:20:06;4.20;99.90
14349;DHT22;7258;50.376;8.742;2023-04-03T00:22:09;4.20;99.90
14349;DHT22;7258;50.376;8.742;2023-04-03T00:24:13;4.20;99.90
14349;DHT22;7258;50.376;8.742;2023-04-03T00:26:16;4.20;99.90
14349;DHT22;7258;50.376;8.742;2023-04-03T00:28:19;4.20;99.90
14349;DHT22;7258;50.376;8.742;2023-04-03T00:30:22;4.20;99.90
14349;DHT22;7258;50.376;8.742;2023-04-03T00:32:25;4.20;99.90
14349;DHT22;7258;50.376;8.742;2023-04-03T00:34:28;4.30;99.90
14349;DHT22;7258;50.376;8.742;2023-04-03T00:36:31;4.30;99.90
14349;DHT22;7258;50.376;8.742;2023-04-03T00:38:34;4.30;99.90
14349;DHT22;7258;50.376;8.742;2023-04-03T00:40:42;4.30;99.90
14349;DHT22;7258;50.376;8.742;2023-04-03T00:42:47;4.30;99.90
14349;DHT22;7258;50.376;8.742;2023-04-03T00:47:39;4.30;99.90
14349;DHT22;7258;50.376;8.742;2023-04-03T00:49:44;4.30;99.90
14349;DHT22;7258;50.376;8.742;2023-04-03T00:51:47;4.30;99.90
14349;DHT22;7258;50.376;8.742;2023-04-03T00:54:23;4.30;99.90
14349;DHT22;7258;50.376;8.742;2023-04-03T00:56:29;4.30;99.90
14349;DHT22;7258;50.376;8.742;2023-04-03T00:58:37;4.30;99.90
14349;DHT22;7258;50.376;8.742;2023-04-03T01:00:46;4.30;99.90
14349;DHT22;7258;50.376;8.742;2023-04-03T01:02:51;4.30;99.90
14349;DHT22;7258;50.376;8.742;2023-04-03T01:04:54;4.30;99.90
14349;DHT22;7258;50.376;8.742;2023-04-03T01:06:58;4.30;99.90
14349;DHT22;7258;50.376;8.742;2023-04-03T01:09:02;4.30;99.90
14349;DHT22;7258;50.376;8.742;2023-04-03T01:11:05;4.30;99.90
14349;DHT22;7258;50.376;8.742;2023-04-03T01:13:20;4.40;99.90
14349;DHT22;7258;50.376;8.742;2023-04-03T01:15:26;4.40;99.90
14349;DHT22;7258;50.376;8.742;2023-04-03T01:17:33;4.40;99.90
14349;DHT22;7258;50.376;8.742;2023-04-03T01:19:38;4.40;99.90
14349;DHT22;7258;50.376;8.742;2023-04-03T01:21:59;4.40;99.90
14349;DHT22;7258;50.376;8.742;2023-04-03T01:24:28;4.40;99.90
14349;DHT22;7258;50.376;8.742;2023-04-03T01:26:35;4.40;99.90
14349;DHT22;7258;50.376;8.742;2023-04-03T01:28:40;4.40;99.90
14349;DHT22;7258;50.376;8.742;2023-04-03T01:30:47;4.40;99.90
14349;DHT22;7258;50.376;8.742;2023-04-03T01:32:53;4.40;99.90
14349;DHT22;7258;50.376;8.742;2023-04-03T01:34:56;4.40;99.90
14349;DHT22;7258;50.376;8.742;2023-04-03T01:36:59;4.50;99.90
14349;DHT22;7258;50.376;8.742;2023-04-03T01:39:02;4.50;99.90
14349;DHT22;7258;50.376;8.742;2023-04-03T01:41:05;4.50;99.90
14349;DHT22;7258;50.376;8.742;2023-04-03T01:43:08;4.50;99.90
14349;DHT22;7258;50.376;8.742;2023-04-03T01:45:11;4.50;99.90
14349;DHT22;7258;50.376;8.742;2023-04-03T01:47:14;4.50;99.90
14349;DHT22;7258;50.376;8.742;2023-04-03T01:49:19;4.50;99.90
14349;DHT22;7258;50.376;8.742;2023-04-03T01:51:22;4.50;99.90
14349;DHT22;7258;50.376;8.742;2023-04-03T01:53:25;4.40;99.90
14349;DHT22;7258;50.376;8.742;2023-04-03T01:55:28;4.40;99.90
14349;DHT22;7258;50.376;8.742;2023-04-03T01:57:31;4.40;99.90
14349;DHT22;7258;50.376;8.742;2023-04-03T01:59:34;4.40;99.90
14349;DHT22;7258;50.376;8.742;2023-04-03T02:01:37;4.40;99.90
14349;DHT22;7258;50.376;8.742;2023-04-03T02:03:40;4.40;99.90
14349;DHT22;7258;50.376;8.742;2023-04-03T02:05:45;4.40;99.90
14349;DHT22;7258;50.376;8.742;2023-04-03T02:07:48;4.40;99.90
14349;DHT22;7258;50.376;8.742;2023-04-03T02:09:51;4.30;99.90
14349;DHT22;7258;50.376;8.742;2023-04-03T02:11:54;4.30;99.90
14349;DHT22;7258;50.376;8.742;2023-04-03T02:13:57;4.30;99.90
14349;DHT22;7258;50.376;8.742;2023-04-03T02:16:06;4.30;99.90
14349;DHT22;7258;50.376;8.742;2023-04-03T02:18:09;4.30;99.90
14349;DHT22;7258;50.376;8.742;2023-04-03T02:20:12;4.20;99.90
14349;DHT22;7258;50.376;8.742;2023-04-03T02:22:18;4.20;99.90
14349;DHT22;7258;50.376;8.742;2023-04-03T02:24:21;4.20;99.90
14349;DHT22;7258;50.376;8.742;2023-04-03T02:26:24;4.20;99.90
14349;DHT22;7258;50.376;8.742;2023-04-03T02:28:27;4.20;99.90
14349;DHT22;7258;50.376;8.742;2023-04-03T02:30:30;4.20;99.90
14349;DHT22;7258;50.376;8.742;2023-04-03T02:32:33;4.20;99.90
14349;DHT22;7258;50.376;8.742;2023-04-03T02:34:36;4.20;99.90
14349;DHT22;7258;50.376;8.742;2023-04-03T02:36:39;4.10;99.90
14349;DHT22;7258;50.376;8.742;2023-04-03T02:38:43;4.10;99.90
14349;DHT22;7258;50.376;8.742;2023-04-03T02:40:49;4.00;99.90
14349;DHT22;7258;50.376;8.742;2023-04-03T02:42:53;4.00;99.90
14349;DHT22;7258;50.376;8.742;2023-04-03T02:44:56;4.00;99.90
14349;DHT22;7258;50.376;8.742;2023-04-03T02:47:01;3.90;99.90
14349;DHT22;7258;50.376;8.742;2023-04-03T02:49:04;3.90;99.90
14349;DHT22;7258;50.376;8.742;2023-04-03T02:51:08;3.80;99.90
14349;DHT22;7258;50.376;8.742;2023-04-03T02:53:11;3.80;99.90
14349;DHT22;7258;50.376;8.742;2023-04-03T02:55:15;3.80;99.90
14349;DHT22;7258;50.376;8.742;2023-04-03T02:57:18;3.70;99.90
14349;DHT22;7258;50.376;8.742;2023-04-03T02:59:22;3.70;99.90
14349;DHT22;7258;50.376;8.742;2023-04-03T03:01:25;3.60;99.90
14349;DHT22;7258;50.376;8.742;2023-04-03T03:03:30;3.60;99.90
14349;DHT22;7258;50.376;8.742;2023-04-03T03:05:40;3.50;99.90
14349;DHT22;7258;50.376;8.742;2023-04-03T03:07:43;3.50;99.90
14349;DHT22;7258;50.376;8.742;2023-04-03T03:09:46;3.40;99.90
14349;DHT22;7258;50.376;8.742;2023-04-03T03:11:51;3.30;99.90
14349;DHT22;7258;50.376;8.742;2023-04-03T03:13:54;3.30;99.90
14349;DHT22;7258;50.376;8.742;2023-04-03T03:15:57;3.20;99.90
14349;DHT22;7258;50.376;8.742;2023-04-03T03:18:01;3.20;99.90
14349;DHT22;7258;50.376;8.742;2023-04-03T03:20:05;3.10;99.90
14349;DHT22;7258;50.376;8.742;2023-04-03T03:22:08;3.10;99.90
14349;DHT22;7258;50.376;8.742;2023-04-03T03:24:11;3.00;99.90
14349;DHT22;7258;50.376;8.742;2023-04-03T03:26:14;2.90;99.90
14349;DHT22;7258;50.376;8.742;2023-04-03T03:28:19;2.90;99.90
14349;DHT22;7258;50.376;8.742;2023-04-03T03:30:22;2.80;99.90
14349;DHT22;7258;50.376;8.742;2023-04-03T03:32:25;2.80;99.90
14349;DHT22;7258;50.376;8.742;2023-04-03T03:34:28;2.80;99.90
14349;DHT22;7258;50.376;8.742;2023-04-03T03:36:31;2.70;99.90
14349;DHT22;7258;50.376;8.742;2023-04-03T03:38:36;2.70;99.90
14349;DHT22;7258;50.376;8.742;2023-04-03T03:40:39;2.70;99.90
14349;DHT22;7258;50.376;8.742;2023-04-03T03:42:42;2.60;99.90
14349;DHT22;7258;50.376;8.742;2023-04-03T03:44:47;2.60;99.90
14349;DHT22;7258;50.376;8.742;2023-04-03T03:46:50;2.60;99.90
14349;DHT22;7258;50.376;8.742;2023-04-03T03:48:53;2.50;99.90
14349;DHT22;7258;50.376;8.742;2023-04-03T03:50:56;2.50;99.90
14349;DHT22;7258;50.376;8.742;2023-04-03T03:52:59;2.50;99.90
14349;DHT22;7258;50.376;8.742;2023-04-03T03:55:02;2.40;99.90
14349;DHT22;7258;50.376;8.742;2023-04-03T03:57:05;2.40;99.90
14349;DHT22;7258;50.376;8.742;2023-04-03T03:59:10;2.40;99.90
14349;DHT22;7258;50.376;8.742;2023-04-03T04:01:15;2.30;99.90
14349;DHT22;7258;50.376;8.742;2023-04-03T04:03:18;2.30;99.90
14349;DHT22;7258;50.376;8.742;2023-04-03T04:05:23;2.30;99.90
14349;DHT22;7258;50.376;8.742;2023-04-03T04:07:26;2.20;99.90
14349;DHT22;7258;50.376;8.742;2023-04-03T04:09:31;2.20;99.90
14349;DHT22;7258;50.376;8.742;2023-04-03T04:11:34;2.10;99.90
14349;DHT22;7258;50.376;8.742;2023-04-03T04:13:36;2.10;99.90
14349;DHT22;7258;50.376;8.742;2023-04-03T04:15:39;2.10;99.90
14349;DHT22;7258;50.376;8.742;2023-04-03T04:17:44;2.00;99.90
14349;DHT22;7258;50.376;8.742;2023-04-03T04:19:48;1.90;99.90
14349;DHT22;7258;50.376;8.742;2023-04-03T04:21:51;1.80;99.90
14349;DHT22;7258;50.376;8.742;2023-04-03T04:23:54;1.80;99.90
14349;DHT22;7258;50.376;8.742;2023-04-03T04:25:58;1.80;99.90
14349;DHT22;7258;50.376;8.742;2023-04-03T04:28:01;1.70;99.90
14349;DHT22;7258;50.376;8.742;2023-04-03T04:30:05;1.70;99.90
14349;DHT22;7258;50.376;8.742;2023-04-03T04:32:08;1.70;99.90
14349;DHT22;7258;50.376;8.742;2023-04-03T04:34:15;1.60;99.90
14349;DHT22;7258;50.376;8.742;2023-04-03T04:36:18;1.60;99.90
14349;DHT22;7258;50.376;8.742;2023-04-03T04:38:21;1.60;99.90
14349;DHT22;7258;50.376;8.742;2023-04-03T04:40:24;1.60;99.90
14349;DHT22;7258;50.376;8.742;2023-04-03T04:42:27;1.60;99.90
14349;DHT22;7258;50.376;8.742;2023-04-03T04:44:31;1.50;99.90
14349;DHT22;7258;50.376;8.742;2023-04-03T04:46:34;1.50;99.90
14349;DHT22;7258;50.376;8.742;2023-04-03T04:48:37;1.50;99.90
14349;DHT22;7258;50.376;8.742;2023-04-03T04:50:44;1.40;99.90
14349;DHT22;7258;50.376;8.742;2023-04-03T04:52:47;1.40;99.90
14349;DHT22;7258;50.376;8.742;2023-04-03T04:54:50;1.30;99.90
14349;DHT22;7258;50.376;8.742;2023-04-03T04:56:53;1.30;99.90
14349;DHT22;7258;50.376;8.742;2023-04-03T04:58:56;1.30;99.90
14349;DHT22;7258;50.376;8.742;2023-04-03T05:01:02;1.30;99.90
14349;DHT22;7258;50.376;8.742;2023-04-03T05:03:05;1.30;99.90
14349;DHT22;7258;50.376;8.742;2023-04-03T05:05:09;1.20;99.90
14349;DHT22;7258;50.376;8.742;2023-04-03T05:07:16;1.20;99.90
14349;DHT22;7258;50.376;8.742;2023-04-03T05:09:19;1.20;99.90
14349;DHT22;7258;50.376;8.742;2023-04-03T05:11:22;1.20;99.90
14349;DHT22;7258;50.376;8.742;2023-04-03T05:13:26;1.20;99.90
14349;DHT22;7258;50.376;8.742;2023-04-03T05:15:29;1.20;99.90
14349;DHT22;7258;50.376;8.742;2023-04-03T05:17:32;1.10;99.90
14349;DHT22;7258;50.376;8.742;2023-04-03T05:19:35;1.10;99.90
14349;DHT22;7258;50.376;8.742;2023-04-03T05:21:38;1.10;99.90
14349;DHT22;7258;50.376;8.742;2023-04-03T05:23:42;1.10;99.90
14349;DHT22;7258;50.376;8.742;2023-04-03T05:25:45;1.20;99.90
14349;DHT22;7258;50.376;8.742;2023-04-03T05:27:50;1.20;99.90
14349;DHT22;7258;50.376;8.742;2023-04-03T05:29:54;1.20;99.90
14349;DHT22;7258;50.376;8.742;2023-04-03T05:31:57;1.10;99.90
14349;DHT22;7258;50.376;8.742;2023-04-03T05:34:00;1.10;99.90
14349;DHT22;7258;50.376;8.742;2023-04-03T05:36:03;1.10;99.90
14349;DHT22;7258;50.376;8.742;2023-04-03T05:38:07;1.00;99.90
14349;DHT22;7258;50.376;8.742;2023-04-03T05:40:12;1.00;99.90
14349;DHT22;7258;50.376;8.742;2023-04-03T05:42:16;1.00;99.90
14349;DHT22;7258;50.376;8.742;2023-04-03T05:44:19;1.10;99.90
14349;DHT22;7258;50.376;8.742;2023-04-03T05:46:22;1.10;99.90
14349;DHT22;7258;50.376;8.742;2023-04-03T05:48:25;1.10;99.90
14349;DHT22;7258;50.376;8.742;2023-04-03T05:50:29;1.10;99.90
14349;DHT22;7258;50.376;8.742;2023-04-03T05:52:36;1.10;99.90
14349;DHT22;7258;50.376;8.742;2023-04-03T05:54:40;1.10;99.90
14349;DHT22;7258;50.376;8.742;2023-04-03T05:56:45;1.10;99.90
14349;DHT22;7258;50.376;8.742;2023-04-03T05:58:48;1.10;99.90
14349;DHT22;7258;50.376;8.742;2023-04-03T06:00:51;1.10;99.90
14349;DHT22;7258;50.376;8.742;2023-04-03T06:02:54;1.20;99.90
14349;DHT22;7258;50.376;8.742;2023-04-03T06:04:57;1.20;99.90
14349;DHT22;7258;50.376;8.742;2023-04-03T06:07:01;1.30;99.90
14349;DHT22;7258;50.376;8.742;2023-04-03T06:09:04;1.40;99.90
14349;DHT22;7258;50.376;8.742;2023-04-03T06:11:06;1.40;99.90
14349;DHT22;7258;50.376;8.742;2023-04-03T06:13:11;1.50;99.90
14349;DHT22;7258;50.376;8.742;2023-04-03T06:15:15;1.50;99.90
14349;DHT22;7258;50.376;8.742;2023-04-03T06:17:19;1.70;99.90
14349;DHT22;7258;50.376;8.742;2023-04-03T06:19:22;1.80;99.90
14349;DHT22;7258;50.376;8.742;2023-04-03T06:21:25;1.80;99.90
14349;DHT22;7258;50.376;8.742;2023-04-03T06:23:28;2.00;99.90
14349;DHT22;7258;50.376;8.742;2023-04-03T06:25:34;2.10;99.90
14349;DHT22;7258;50.376;8.742;2023-04-03T06:27:37;2.10;99.90
14349;DHT22;7258;50.376;8.742;2023-04-03T06:29:42;2.20;99.90
14349;DHT22;7258;50.376;8.742;2023-04-03T06:31:48;2.30;99.90
14349;DHT22;7258;50.376;8.742;2023-04-03T06:33:51;2.40;99.90
14349;DHT22;7258;50.376;8.742;2023-04-03T06:35:57;2.50;99.90
14349;DHT22;7258;50.376;8.742;2023-04-03T06:38:01;2.70;99.90
14349;DHT22;7258;50.376;8.742;2023-04-03T06:40:07;2.70;99.90
14349;DHT22;7258;50.376;8.742;2023-04-03T06:42:13;2.80;99.90
14349;DHT22;7258;50.376;8.742;2023-04-03T06:44:16;2.90;99.90
14349;DHT22;7258;50.376;8.742;2023-04-03T06:46:21;3.00;99.90
14349;DHT22;7258;50.376;8.742;2023-04-03T06:48:25;3.00;99.90
14349;DHT22;7258;50.376;8.742;2023-04-03T06:50:28;3.00;99.90
14349;DHT22;7258;50.376;8.742;2023-04-03T06:52:31;3.00;99.90
14349;DHT22;7258;50.376;8.742;2023-04-03T06:54:34;3.00;99.90
14349;DHT22;7258;50.376;8.742;2023-04-03T06:56:37;3.00;99.90
14349;DHT22;7258;50.376;8.742;2023-04-03T06:58:41;3.00;99.90
14349;DHT22;7258;50.376;8.742;2023-04-03T07:00:45;3.10;99.90
14349;DHT22;7258;50.376;8.742;2023-04-03T07:02:50;3.10;99.90
14349;DHT22;7258;50.376;8.742;2023-04-03T07:04:53;3.20;99.90
14349;DHT22;7258;50.376;8.742;2023-04-03T07:06:56;3.30;99.90
14349;DHT22;7258;50.376;8.742;2023-04-03T07:09:00;3.30;99.90
14349;DHT22;7258;50.376;8.742;2023-04-03T07:11:04;3.30;99.90
14349;DHT22;7258;50.376;8.742;2023-04-03T07:13:07;3.30;99.90
14349;DHT22;7258;50.376;8.742;2023-04-03T07:15:10;3.30;99.90
14349;DHT22;7258;50.376;8.742;2023-04-03T07:17:14;3.40;99.90
14349;DHT22;7258;50.376;8.742;2023-04-03T07:19:18;3.30;99.90
14349;DHT22;7258;50.376;8.742;2023-04-03T07:21:23;3.40;99.90
14349;DHT22;7258;50.376;8.742;2023-04-03T07:23:26;3.40;99.90
14349;DHT22;7258;50.376;8.742;2023-04-03T07:25:29;3.60;99.90
14349;DHT22;7258;50.376;8.742;2023-04-03T07:27:33;3.60;99.90
14349;DHT22;7258;50.376;8.742;2023-04-03T07:29:36;3.60;99.90
14349;DHT22;7258;50.376;8.742;2023-04-03T07:31:39;3.60;99.90
14349;DHT22;7258;50.376;8.742;2023-04-03T07:33:44;3.70;99.90
14349;DHT22;7258;50.376;8.742;2023-04-03T07:35:49;3.70;99.90
14349;DHT22;7258;50.376;8.742;2023-04-03T07:37:53;3.80;99.90
14349;DHT22;7258;50.376;8.742;2023-04-03T07:39:56;3.80;99.90
14349;DHT22;7258;50.376;8.742;2023-04-03T07:42:00;3.80;99.90
14349;DHT22;7258;50.376;8.742;2023-04-03T07:44:04;3.90;99.90
14349;DHT22;7258;50.376;8.742;2023-04-03T07:46:07;4.00;99.90
14349;DHT22;7258;50.376;8.742;2023-04-03T07:48:11;4.00;99.90
14349;DHT22;7258;50.376;8.742;2023-04-03T07:50:14;4.10;99.90
14349;DHT22;7258;50.376;8.742;2023-04-03T07:52:19;4.20;99.90
14349;DHT22;7258;50.376;8.742;2023-04-03T07:54:22;4.20;99.90
14349;DHT22;7258;50.376;8.742;2023-04-03T07:56:25;4.20;99.90
14349;DHT22;7258;50.376;8.742;2023-04-03T07:58:29;4.20;99.90
14349;DHT22;7258;50.376;8.742;2023-04-03T08:00:32;4.30;99.90
14349;DHT22;7258;50.376;8.742;2023-04-03T08:02:38;4.30;99.90
14349;DHT22;7258;50.376;8.742;2023-04-03T08:04:41;4.30;99.90
14349;DHT22;7258;50.376;8.742;2023-04-03T08:06:45;4.40;99.90
14349;DHT22;7258;50.376;8.742;2023-04-03T08:08:49;4.50;99.90
14349;DHT22;7258;50.376;8.742;2023-04-03T08:10:54;4.60;99.90
14349;DHT22;7258;50.376;8.742;2023-04-03T08:12:56;4.70;99.90
14349;DHT22;7258;50.376;8.742;2023-04-03T08:15:00;4.70;99.90
14349;DHT22;7258;50.376;8.742;2023-04-03T08:17:03;4.80;99.90
14349;DHT22;7258;50.376;8.742;2023-04-03T08:19:07;4.90;99.90
14349;DHT22;7258;50.376;8.742;2023-04-03T08:21:19;5.00;99.90
14349;DHT22;7258;50.376;8.742;2023-04-03T08:23:22;5.00;99.90
14349;DHT22;7258;50.376;8.742;2023-04-03T08:25:26;4.90;99.90
14349;DHT22;7258;50.376;8.742;2023-04-03T08:27:31;4.90;99.90
14349;DHT22;7258;50.376;8.742;2023-04-03T08:29:34;4.90;99.90
14349;DHT22;7258;50.376;8.742;2023-04-03T08:31:39;4.90;99.90
14349;DHT22;7258;50.376;8.742;2023-04-03T08:33:42;4.90;99.90
14349;DHT22;7258;50.376;8.742;2023-04-03T08:35:45;4.80;99.90
14349;DHT22;7258;50.376;8.742;2023-04-03T08:37:48;4.80;99.90
14349;DHT22;7258;50.376;8.742;2023-04-03T08:39:51;4.80;99.90
14349;DHT22;7258;50.376;8.742;2023-04-03T08:41:58;4.90;99.90
14349;DHT22;7258;50.376;8.742;2023-04-03T08:44:11;5.00;99.90
14349;DHT22;7258;50.376;8.742;2023-04-03T08:46:17;5.00;99.90
14349;DHT22;7258;50.376;8.742;2023-04-03T08:48:23;5.00;99.90
14349;DHT22;7258;50.376;8.742;2023-04-03T08:50:39;5.10;99.90
14349;DHT22;7258;50.376;8.742;2023-04-03T08:52:46;5.10;99.90
14349;DHT22;7258;50.376;8.742;2023-04-03T08:54:53;5.20;99.90
14349;DHT22;7258;50.376;8.742;2023-04-03T08:57:02;5.30;99.90
14349;DHT22;7258;50.376;8.742;2023-04-03T08:59:12;5.20;99.90
14349;DHT22;7258;50.376;8.742;2023-04-03T09:01:19;5.20;99.90
14349;DHT22;7258;50.376;8.742;2023-04-03T09:03:23;5.20;99.90
14349;DHT22;7258;50.376;8.742;2023-04-03T09:05:36;5.20;99.90
14349;DHT22;7258;50.376;8.742;2023-04-03T09:07:44;5.40;99.90
14349;DHT22;7258;50.376;8.742;2023-04-03T09:09:50;5.40;99.90
14349;DHT22;7258;50.376;8.742;2023-04-03T09:12:00;5.30;99.90
14349;DHT22;7258;50.376;8.742;2023-04-03T09:14:15;5.20;99.90
14349;DHT22;7258;50.376;8.742;2023-04-03T09:16:31;5.30;99.90
14349;DHT22;7258;50.376;8.742;2023-04-03T09:18:41;5.30;99.90
14349;DHT22;7258;50.376;8.742;2023-04-03T09:20:53;5.40;99.90
14349;DHT22;7258;50.376;8.742;2023-04-03T09:22:58;5.40;99.90
14349;DHT22;7258;50.376;8.742;2023-04-03T09:25:08;5.30;99.90
14349;DHT22;7258;50.376;8.742;2023-04-03T09:27:14;5.20;99.90
14349;DHT22;7258;50.376;8.742;2023-04-03T09:29:19;5.20;99.90
14349;DHT22;7258;50.376;8.742;2023-04-03T09:31:25;5.20;99.90
14349;DHT22;7258;50.376;8.742;2023-04-03T09:33:29;5.20;99.90
14349;DHT22;7258;50.376;8.742;2023-04-03T09:35:34;5.40;99.90
14349;DHT22;7258;50.376;8.742;2023-04-03T09:37:50;5.60;99.90
14349;DHT22;7258;50.376;8.742;2023-04-03T09:39:53;5.90;99.90
14349;DHT22;7258;50.376;8.742;2023-04-03T09:41:59;6.00;99.90
14349;DHT22;7258;50.376;8.742;2023-04-03T09:44:22;6.00;99.90
14349;DHT22;7258;50.376;8.742;2023-04-03T09:46:29;6.00;99.90
14349;DHT22;7258;50.376;8.742;2023-04-03T09:48:33;6.00;99.90
14349;DHT22;7258;50.376;8.742;2023-04-03T09:50:36;6.00;99.90
14349;DHT22;7258;50.376;8.742;2023-04-03T09:52:42;6.10;99.90
14349;DHT22;7258;50.376;8.742;2023-04-03T09:54:45;6.20;99.90
14349;DHT22;7258;50.376;8.742;2023-04-03T09:56:50;6.20;99.90
14349;DHT22;7258;50.376;8.742;2023-04-03T09:59:13;6.20;99.90
14349;DHT22;7258;50.376;8.742;2023-04-03T10:01:25;6.30;99.90
14349;DHT22;7258;50.376;8.742;2023-04-03T10:03:31;6.30;99.90
14349;DHT22;7258;50.376;8.742;2023-04-03T10:05:39;6.30;99.90
14349;DHT22;7258;50.376;8.742;2023-04-03T10:07:42;6.30;99.70
14349;DHT22;7258;50.376;8.742;2023-04-03T10:10:01;6.30;99.90
14349;DHT22;7258;50.376;8.742;2023-04-03T10:12:08;6.40;99.20
14349;DHT22;7258;50.376;8.742;2023-04-03T10:14:17;6.50;99.50
14349;DHT22;7258;50.376;8.742;2023-04-03T10:16:23;6.60;99.40
14349;DHT22;7258;50.376;8.742;2023-04-03T10:18:34;6.70;98.10
14349;DHT22;7258;50.376;8.742;2023-04-03T10:20:41;6.80;97.60
14349;DHT22;7258;50.376;8.742;2023-04-03T10:22:59;6.80;97.60
14349;DHT22;7258;50.376;8.742;2023-04-03T10:25:06;6.80;96.90
14349;DHT22;7258;50.376;8.742;2023-04-03T10:27:17;6.70;96.00
14349;DHT22;7258;50.376;8.742;2023-04-03T10:29:37;6.70;96.00
14349;DHT22;7258;50.376;8.742;2023-04-03T10:31:47;6.80;96.50
14349;DHT22;7258;50.376;8.742;2023-04-03T10:33:58;6.80;96.30
14349;DHT22;7258;50.376;8.742;2023-04-03T10:36:12;6.70;96.60
14349;DHT22;7258;50.376;8.742;2023-04-03T10:38:21;6.80;96.30
14349;DHT22;7258;50.376;8.742;2023-04-03T10:40:30;6.70;96.20
14349;DHT22;7258;50.376;8.742;2023-04-03T10:42:41;6.70;96.40
14349;DHT22;7258;50.376;8.742;2023-04-03T10:45:08;6.80;96.60
14349;DHT22;7258;50.376;8.742;2023-04-03T10:47:20;6.90;95.50
14349;DHT22;7258;50.376;8.742;2023-04-03T10:49:33;6.90;96.10
14349;DHT22;7258;50.376;8.742;2023-04-03T10:51:47;6.90;95.70
14349;DHT22;7258;50.376;8.742;2023-04-03T10:53:56;7.00;96.40
14349;DHT22;7258;50.376;8.742;2023-04-03T10:56:03;7.10;97.00
14349;DHT22;7258;50.376;8.742;2023-04-03T10:58:15;7.30;96.30
14349;DHT22;7258;50.376;8.742;2023-04-03T11:00:25;7.20;96.40
14349;DHT22;7258;50.376;8.742;2023-04-03T11:02:32;7.00;96.60
14349;DHT22;7258;50.376;8.742;2023-04-03T11:04:39;7.10;97.50
14349;DHT22;7258;50.376;8.742;2023-04-03T11:06:48;7.20;96.80
14349;DHT22;7258;50.376;8.742;2023-04-03T11:08:55;7.30;95.80
14349;DHT22;7258;50.376;8.742;2023-04-03T11:11:05;7.40;95.80
14349;DHT22;7258;50.376;8.742;2023-04-03T11:13:13;7.30;95.30
14349;DHT22;7258;50.376;8.742;2023-04-03T11:15:22;7.20;95.90
14349;DHT22;7258;50.376;8.742;2023-04-03T11:17:31;7.20;95.30
14349;DHT22;7258;50.376;8.742;2023-04-03T11:19:39;7.10;95.60
14349;DHT22;7258;50.376;8.742;2023-04-03T11:21:47;7.10;95.10
14349;DHT22;7258;50.376;8.742;2023-04-03T11:23:56;7.20;94.70
14349;DHT22;7258;50.376;8.742;2023-04-03T11:26:07;7.20;94.70
14349;DHT22;7258;50.376;8.742;2023-04-03T11:28:13;7.30;95.60
14349;DHT22;7258;50.376;8.742;2023-04-03T11:30:21;7.50;95.50
14349;DHT22;7258;50.376;8.742;2023-04-03T11:32:46;7.60;93.40
14349;DHT22;7258;50.376;8.742;2023-04-03T11:34:53;7.70;94.70
14349;DHT22;7258;50.376;8.742;2023-04-03T11:37:01;7.70;93.60
14349;DHT22;7258;50.376;8.742;2023-04-03T11:39:18;7.70;93.80
14349;DHT22;7258;50.376;8.742;2023-04-03T11:41:26;7.70;92.80
14349;DHT22;7258;50.376;8.742;2023-04-03T11:43:32;7.80;93.40
14349;DHT22;7258;50.376;8.742;2023-04-03T11:45:40;7.90;93.50
14349;DHT22;7258;50.376;8.742;2023-04-03T11:47:54;8.00;94.30
14349;DHT22;7258;50.376;8.742;2023-04-03T11:50:00;8.00;93.70
14349;DHT22;7258;50.376;8.742;2023-04-03T11:52:09;8.10;93.50
14349;DHT22;7258;50.376;8.742;2023-04-03T11:54:43;8.20;94.10
14349;DHT22;7258;50.376;8.742;2023-04-03T11:56:46;8.20;93.10
14349;DHT22;7258;50.376;8.742;2023-04-03T11:59:19;8.20;92.80
14349;DHT22;7258;50.376;8.742;2023-04-03T12:01:46;8.20;92.20
14349;DHT22;7258;50.376;8.742;2023-04-03T12:04:05;8.20;92.30
14349;DHT22;7258;50.376;8.742;2023-04-03T12:06:49;8.10;92.70
14349;DHT22;7258;50.376;8.742;2023-04-03T12:08:53;8.20;93.20
14349;DHT22;7258;50.376;8.742;2023-04-03T12:11:21;8.20;92.40
14349;DHT22;7258;50.376;8.742;2023-04-03T12:13:26;8.10;92.00
14349;DHT22;7258;50.376;8.742;2023-04-03T12:15:52;8.00;92.00
14349;DHT22;7258;50.376;8.742;2023-04-03T12:17:56;8.00;92.40
14349;DHT22;7258;50.376;8.742;2023-04-03T12:19:59;8.00;92.00
14349;DHT22;7258;50.376;8.742;2023-04-03T12:22:08;8.00;91.80
14349;DHT22;7258;50.376;8.742;2023-04-03T12:24:24;8.10;92.80
14349;DHT22;7258;50.376;8.742;2023-04-03T12:26:31;8.10;92.80
14349;DHT22;7258;50.376;8.742;2023-04-03T12:28:51;8.20;92.20
14349;DHT22;7258;50.376;8.742;2023-04-03T12:30:55;8.30;92.30
14349;DHT22;7258;50.376;8.742;2023-04-03T12:33:20;8.30;92.80
14349;DHT22;7258;50.376;8.742;2023-04-03T12:35:29;8.40;92.40
14349;DHT22;7258;50.376;8.742;2023-04-03T12:37:48;8.50;93.50
14349;DHT22;7258;50.376;8.742;2023-04-03T12:39:59;8.60;92.10
14349;DHT22;7258;50.376;8.742;2023-04-03T12:42:16;8.60;92.30
14349;DHT22;7258;50.376;8.742;2023-04-03T12:44:38;8.50;91.60
14349;DHT22;7258;50.376;8.742;2023-04-03T12:46:45;8.30;92.00
14349;DHT22;7258;50.376;8.742;2023-04-03T12:48:54;8.30;93.30
14349;DHT22;7258;50.376;8.742;2023-04-03T12:50:58;8.30;92.70
14349;DHT22;7258;50.376;8.742;2023-04-03T12:53:04;8.20;91.50
14349;DHT22;7258;50.376;8.742;2023-04-03T12:55:17;8.20;91.60
14349;DHT22;7258;50.376;8.742;2023-04-03T12:57:23;8.10;91.90
14349;DHT22;7258;50.376;8.742;2023-04-03T12:59:27;8.00;92.00
14349;DHT22;7258;50.376;8.742;2023-04-03T13:01:30;8.10;92.20
14349;DHT22;7258;50.376;8.742;2023-04-03T13:03:39;8.20;91.60
14349;DHT22;7258;50.376;8.742;2023-04-03T13:05:45;8.20;91.70
14349;DHT22;7258;50.376;8.742;2023-04-03T13:07:49;8.20;91.20
14349;DHT22;7258;50.376;8.742;2023-04-03T13:09:59;8.30;92.10
14349;DHT22;7258;50.376;8.742;2023-04-03T13:12:10;8.30;91.40
14349;DHT22;7258;50.376;8.742;2023-04-03T13:14:18;8.40;92.60
14349;DHT22;7258;50.376;8.742;2023-04-03T13:16:21;8.60;93.40
14349;DHT22;7258;50.376;8.742;2023-04-03T13:18:28;8.80;93.40
14349;DHT22;7258;50.376;8.742;2023-04-03T13:20:34;9.00;93.20
14349;DHT22;7258;50.376;8.742;2023-04-03T13:22:49;9.00;93.10
14349;DHT22;7258;50.376;8.742;2023-04-03T13:24:55;8.90;93.20
14349;DHT22;7258;50.376;8.742;2023-04-03T13:26:59;8.70;92.80
14349;DHT22;7258;50.376;8.742;2023-04-03T13:29:05;8.50;92.80
14349;DHT22;7258;50.376;8.742;2023-04-03T13:31:19;8.50;93.10
14349;DHT22;7258;50.376;8.742;2023-04-03T13:33:25;8.30;93.50
14349;DHT22;7258;50.376;8.742;2023-04-03T13:35:34;8.20;92.60
14349;DHT22;7258;50.376;8.742;2023-04-03T13:37:37;7.90;92.90
14349;DHT22;7258;50.376;8.742;2023-04-03T13:39:41;7.90;93.60
14349;DHT22;7258;50.376;8.742;2023-04-03T13:41:50;7.90;92.90
14349;DHT22;7258;50.376;8.742;2023-04-03T13:43:54;7.80;93.20
14349;DHT22;7258;50.376;8.742;2023-04-03T13:46:23;7.70;92.50
14349;DHT22;7258;50.376;8.742;2023-04-03T13:48:26;7.60;92.70